sensor_id;sensor_type;location;lat;lon;timestamp;P1;durP1;ratioP1;P2;durP2;ratioP2
15946;SDS011;8072;52.554;7.966;2023-04-25T00:01:20;11.27;;;4.50;;
15946;SDS011;8072;52.554;7.966;2023-04-25T00:03:47;13.80;;;3.90;;
15946;SDS011;8072;52.554;7.966;2023-04-25T00:06:13;13.27;;;3.83;;
15946;SDS011;8072;52.554;7.966;2023-04-25T00:08:39;15.10;;;4.13;;
15946;SDS011;8072;52.554;7.966;2023-04-25T00:11:05;9.27;;;3.90;;
15946;SDS011;8072;52.554;7.966;2023-04-25T00:13:31;13.80;;;4.07;;
15946;SDS011;8072;52.554;7.966;2023-04-25T00:15:58;14.17;;;4.63;;
15946;SDS011;8072;52.554;7.966;2023-04-25T00:18:25;14.83;;;4.50;;
15946;SDS011;8072;52.554;7.966;2023-04-25T00:20:53;15.43;;;4.30;;
15946;SDS011;8072;52.554;7.966;2023-04-25T00:23:20;19.43;;;4.30;;
15946;SDS011;8072;52.554;7.966;2023-04-25T00:25:49;13.23;;;3.83;;
15946;SDS011;8072;52.554;7.966;2023-04-25T00:28:16;22.93;;;4.23;;
15946;SDS011;8072;52.554;7.966;2023-04-25T00:30:42;18.53;;;4.50;;
15946;SDS011;8072;52.554;7.966;2023-04-25T00:33:08;15.00;;;4.10;;
15946;SDS011;8072;52.554;7.966;2023-04-25T00:35:34;19.30;;;4.53;;
15946;SDS011;8072;52.554;7.966;2023-04-25T00:38:00;12.90;;;4.33;;
15946;SDS011;8072;52.554;7.966;2023-04-25T00:40:27;16.17;;;4.17;;
15946;SDS011;8072;52.554;7.966;2023-04-25T00:42:53;16.13;;;5.00;;
15946;SDS011;8072;52.554;7.966;2023-04-25T00:45:19;12.87;;;4.43;;
15946;SDS011;8072;52.554;7.966;2023-04-25T00:47:45;16.03;;;3.93;;
15946;SDS011;8072;52.554;7.966;2023-04-25T00:50:13;21.57;;;4.47;;
15946;SDS011;8072;52.554;7.966;2023-04-25T00:52:43;11.60;;;4.83;;
15946;SDS011;8072;52.554;7.966;2023-04-25T00:55:10;18.47;;;4.03;;
15946;SDS011;8072;52.554;7.966;2023-04-25T00:57:37;21.40;;;5.20;;
15946;SDS011;8072;52.554;7.966;2023-04-25T01:00:04;17.10;;;4.10;;
15946;SDS011;8072;52.554;7.966;2023-04-25T01:02:32;18.27;;;5.07;;
15946;SDS011;8072;52.554;7.966;2023-04-25T01:05:00;23.43;;;4.87;;
15946;SDS011;8072;52.554;7.966;2023-04-25T01:07:27;21.40;;;4.37;;
15946;SDS011;8072;52.554;7.966;2023-04-25T01:09:52;18.20;;;4.40;;
15946;SDS011;8072;52.554;7.966;2023-04-25T01:12:18;19.03;;;4.37;;
15946;SDS011;8072;52.554;7.966;2023-04-25T01:14:44;16.60;;;4.40;;
15946;SDS011;8072;52.554;7.966;2023-04-25T01:17:11;17.97;;;4.63;;
15946;SDS011;8072;52.554;7.966;2023-04-25T01:19:37;12.43;;;4.50;;
15946;SDS011;8072;52.554;7.966;2023-04-25T01:22:03;18.13;;;4.10;;
15946;SDS011;8072;52.554;7.966;2023-04-25T01:24:29;18.40;;;4.03;;
15946;SDS011;8072;52.554;7.966;2023-04-25T01:26:57;22.80;;;4.27;;
15946;SDS011;8072;52.554;7.966;2023-04-25T01:29:25;19.50;;;3.63;;
15946;SDS011;8072;52.554;7.966;2023-04-25T01:31:52;25.67;;;4.73;;
15946;SDS011;8072;52.554;7.966;2023-04-25T01:34:18;18.70;;;4.53;;
15946;SDS011;8072;52.554;7.966;2023-04-25T01:36:44;21.53;;;4.40;;
15946;SDS011;8072;52.554;7.966;2023-04-25T01:39:11;18.60;;;5.93;;
15946;SDS011;8072;52.554;7.966;2023-04-25T01:41:37;20.80;;;5.37;;
15946;SDS011;8072;52.554;7.966;2023-04-25T01:44:03;20.50;;;4.20;;
15946;SDS011;8072;52.554;7.966;2023-04-25T01:46:29;17.83;;;4.17;;
15946;SDS011;8072;52.554;7.966;2023-04-25T01:48:55;17.73;;;4.13;;
15946;SDS011;8072;52.554;7.966;2023-04-25T01:51:21;21.73;;;5.00;;
15946;SDS011;8072;52.554;7.966;2023-04-25T01:53:47;16.37;;;3.80;;
15946;SDS011;8072;52.554;7.966;2023-04-25T01:56:13;23.77;;;4.27;;
15946;SDS011;8072;52.554;7.966;2023-04-25T01:58:38;20.57;;;3.90;;
15946;SDS011;8072;52.554;7.966;2023-04-25T02:01:04;14.27;;;3.83;;
15946;SDS011;8072;52.554;7.966;2023-04-25T02:03:31;15.50;;;4.10;;
15946;SDS011;8072;52.554;7.966;2023-04-25T02:05:57;13.43;;;3.57;;
15946;SDS011;8072;52.554;7.966;2023-04-25T02:08:22;14.40;;;4.10;;
15946;SDS011;8072;52.554;7.966;2023-04-25T02:10:50;24.37;;;4.20;;
15946;SDS011;8072;52.554;7.966;2023-04-25T02:13:16;18.40;;;4.00;;
15946;SDS011;8072;52.554;7.966;2023-04-25T02:15:42;16.90;;;4.17;;
15946;SDS011;8072;52.554;7.966;2023-04-25T02:18:08;14.13;;;4.03;;
15946;SDS011;8072;52.554;7.966;2023-04-25T02:20:35;19.63;;;4.07;;
15946;SDS011;8072;52.554;7.966;2023-04-25T02:23:02;18.50;;;4.03;;
15946;SDS011;8072;52.554;7.966;2023-04-25T02:25:28;14.27;;;4.03;;
15946;SDS011;8072;52.554;7.966;2023-04-25T02:27:54;21.00;;;5.07;;
15946;SDS011;8072;52.554;7.966;2023-04-25T02:30:20;20.50;;;4.40;;
15946;SDS011;8072;52.554;7.966;2023-04-25T02:32:46;17.67;;;4.13;;
15946;SDS011;8072;52.554;7.966;2023-04-25T02:35:12;14.03;;;4.47;;
15946;SDS011;8072;52.554;7.966;2023-04-25T02:37:38;12.50;;;4.07;;
15946;SDS011;8072;52.554;7.966;2023-04-25T02:40:04;12.97;;;4.33;;
15946;SDS011;8072;52.554;7.966;2023-04-25T02:42:32;17.13;;;4.70;;
15946;SDS011;8072;52.554;7.966;2023-04-25T02:44:58;13.57;;;3.93;;
15946;SDS011;8072;52.554;7.966;2023-04-25T02:47:24;9.67;;;3.47;;
15946;SDS011;8072;52.554;7.966;2023-04-25T02:49:50;12.67;;;4.67;;
15946;SDS011;8072;52.554;7.966;2023-04-25T02:52:16;13.67;;;3.77;;
15946;SDS011;8072;52.554;7.966;2023-04-25T02:54:41;12.33;;;3.87;;
15946;SDS011;8072;52.554;7.966;2023-04-25T02:57:07;17.63;;;4.60;;
15946;SDS011;8072;52.554;7.966;2023-04-25T02:59:33;14.83;;;4.17;;
15946;SDS011;8072;52.554;7.966;2023-04-25T03:01:59;12.77;;;4.10;;
15946;SDS011;8072;52.554;7.966;2023-04-25T03:04:26;12.60;;;4.13;;
15946;SDS011;8072;52.554;7.966;2023-04-25T03:06:52;17.57;;;3.80;;
15946;SDS011;8072;52.554;7.966;2023-04-25T03:09:18;14.30;;;4.40;;
15946;SDS011;8072;52.554;7.966;2023-04-25T03:11:44;16.23;;;4.67;;
15946;SDS011;8072;52.554;7.966;2023-04-25T03:14:11;15.40;;;3.80;;
15946;SDS011;8072;52.554;7.966;2023-04-25T03:16:37;12.50;;;3.50;;
15946;SDS011;8072;52.554;7.966;2023-04-25T03:19:04;17.27;;;3.83;;
15946;SDS011;8072;52.554;7.966;2023-04-25T03:21:30;16.13;;;4.27;;
15946;SDS011;8072;52.554;7.966;2023-04-25T03:23:57;17.10;;;3.47;;
15946;SDS011;8072;52.554;7.966;2023-04-25T03:26:23;18.60;;;4.47;;
15946;SDS011;8072;52.554;7.966;2023-04-25T03:28:49;17.07;;;4.37;;
15946;SDS011;8072;52.554;7.966;2023-04-25T03:31:15;16.97;;;4.40;;
15946;SDS011;8072;52.554;7.966;2023-04-25T03:33:41;18.43;;;3.97;;
15946;SDS011;8072;52.554;7.966;2023-04-25T03:36:07;12.87;;;4.03;;
15946;SDS011;8072;52.554;7.966;2023-04-25T03:38:34;16.13;;;4.17;;
15946;SDS011;8072;52.554;7.966;2023-04-25T03:41:04;19.07;;;4.13;;
15946;SDS011;8072;52.554;7.966;2023-04-25T03:43:30;15.40;;;3.57;;
15946;SDS011;8072;52.554;7.966;2023-04-25T03:45:56;14.93;;;3.97;;
15946;SDS011;8072;52.554;7.966;2023-04-25T03:48:22;13.63;;;3.60;;
15946;SDS011;8072;52.554;7.966;2023-04-25T03:50:49;15.53;;;4.40;;
15946;SDS011;8072;52.554;7.966;2023-04-25T03:53:16;15.47;;;4.10;;
15946;SDS011;8072;52.554;7.966;2023-04-25T03:55:43;15.00;;;3.90;;
15946;SDS011;8072;52.554;7.966;2023-04-25T03:58:08;15.17;;;3.83;;
15946;SDS011;8072;52.554;7.966;2023-04-25T04:00:35;17.73;;;3.90;;
15946;SDS011;8072;52.554;7.966;2023-04-25T04:03:01;15.20;;;3.73;;
15946;SDS011;8072;52.554;7.966;2023-04-25T04:05:27;15.27;;;3.37;;
15946;SDS011;8072;52.554;7.966;2023-04-25T04:07:53;14.33;;;3.20;;
15946;SDS011;8072;52.554;7.966;2023-04-25T04:10:20;12.97;;;3.50;;
15946;SDS011;8072;52.554;7.966;2023-04-25T04:12:46;12.80;;;3.20;;
15946;SDS011;8072;52.554;7.966;2023-04-25T04:15:12;11.07;;;3.50;;
15946;SDS011;8072;52.554;7.966;2023-04-25T04:17:38;8.10;;;3.13;;
15946;SDS011;8072;52.554;7.966;2023-04-25T04:20:04;8.47;;;3.47;;
15946;SDS011;8072;52.554;7.966;2023-04-25T04:22:31;15.00;;;3.30;;
15946;SDS011;8072;52.554;7.966;2023-04-25T04:24:57;9.73;;;2.67;;
15946;SDS011;8072;52.554;7.966;2023-04-25T04:27:23;18.57;;;4.03;;
15946;SDS011;8072;52.554;7.966;2023-04-25T04:29:48;11.77;;;3.53;;
15946;SDS011;8072;52.554;7.966;2023-04-25T04:32:15;15.57;;;3.37;;
15946;SDS011;8072;52.554;7.966;2023-04-25T04:34:42;13.17;;;3.30;;
15946;SDS011;8072;52.554;7.966;2023-04-25T04:37:08;12.33;;;3.33;;
15946;SDS011;8072;52.554;7.966;2023-04-25T04:39:35;13.40;;;3.47;;
15946;SDS011;8072;52.554;7.966;2023-04-25T04:42:02;10.57;;;3.10;;
15946;SDS011;8072;52.554;7.966;2023-04-25T04:44:29;9.13;;;3.10;;
15946;SDS011;8072;52.554;7.966;2023-04-25T04:46:57;17.93;;;3.40;;
15946;SDS011;8072;52.554;7.966;2023-04-25T04:49:24;14.03;;;4.10;;
15946;SDS011;8072;52.554;7.966;2023-04-25T04:51:49;16.33;;;3.83;;
15946;SDS011;8072;52.554;7.966;2023-04-25T04:54:16;13.03;;;3.93;;
15946;SDS011;8072;52.554;7.966;2023-04-25T04:56:42;13.37;;;3.73;;
15946;SDS011;8072;52.554;7.966;2023-04-25T04:59:07;15.23;;;3.27;;
15946;SDS011;8072;52.554;7.966;2023-04-25T05:01:33;12.40;;;4.03;;
15946;SDS011;8072;52.554;7.966;2023-04-25T05:04:02;15.77;;;4.00;;
15946;SDS011;8072;52.554;7.966;2023-04-25T05:06:29;10.73;;;3.63;;
15946;SDS011;8072;52.554;7.966;2023-04-25T05:08:55;12.87;;;3.90;;
15946;SDS011;8072;52.554;7.966;2023-04-25T05:11:22;9.40;;;3.03;;
15946;SDS011;8072;52.554;7.966;2023-04-25T05:13:49;18.93;;;3.73;;
15946;SDS011;8072;52.554;7.966;2023-04-25T05:16:16;12.33;;;3.17;;
15946;SDS011;8072;52.554;7.966;2023-04-25T05:18:42;15.03;;;3.80;;
15946;SDS011;8072;52.554;7.966;2023-04-25T05:21:08;16.53;;;3.27;;
15946;SDS011;8072;52.554;7.966;2023-04-25T05:23:34;15.33;;;3.50;;
15946;SDS011;8072;52.554;7.966;2023-04-25T05:26:00;14.20;;;3.33;;
15946;SDS011;8072;52.554;7.966;2023-04-25T05:28:26;13.70;;;3.47;;
15946;SDS011;8072;52.554;7.966;2023-04-25T05:30:51;16.90;;;4.00;;
15946;SDS011;8072;52.554;7.966;2023-04-25T05:33:17;12.73;;;3.00;;
15946;SDS011;8072;52.554;7.966;2023-04-25T05:35:44;9.67;;;2.90;;
15946;SDS011;8072;52.554;7.966;2023-04-25T05:38:10;12.20;;;3.10;;
15946;SDS011;8072;52.554;7.966;2023-04-25T05:40:36;17.03;;;3.30;;
15946;SDS011;8072;52.554;7.966;2023-04-25T05:43:02;11.77;;;3.50;;
15946;SDS011;8072;52.554;7.966;2023-04-25T05:45:27;16.40;;;3.07;;
15946;SDS011;8072;52.554;7.966;2023-04-25T05:47:53;13.07;;;3.43;;
15946;SDS011;8072;52.554;7.966;2023-04-25T05:50:19;15.50;;;3.10;;
15946;SDS011;8072;52.554;7.966;2023-04-25T05:52:45;15.23;;;3.30;;
15946;SDS011;8072;52.554;7.966;2023-04-25T05:55:10;13.27;;;3.20;;
15946;SDS011;8072;52.554;7.966;2023-04-25T05:57:36;14.10;;;3.87;;
15946;SDS011;8072;52.554;7.966;2023-04-25T06:00:06;6.77;;;2.70;;
15946;SDS011;8072;52.554;7.966;2023-04-25T06:02:34;17.27;;;3.47;;
15946;SDS011;8072;52.554;7.966;2023-04-25T06:05:00;7.93;;;3.50;;
15946;SDS011;8072;52.554;7.966;2023-04-25T06:07:28;10.70;;;2.93;;
15946;SDS011;8072;52.554;7.966;2023-04-25T06:09:55;8.03;;;2.87;;
15946;SDS011;8072;52.554;7.966;2023-04-25T06:12:21;8.93;;;2.90;;
15946;SDS011;8072;52.554;7.966;2023-04-25T06:14:46;11.57;;;3.20;;
15946;SDS011;8072;52.554;7.966;2023-04-25T06:17:12;16.00;;;3.30;;
15946;SDS011;8072;52.554;7.966;2023-04-25T06:19:38;12.50;;;3.40;;
15946;SDS011;8072;52.554;7.966;2023-04-25T06:22:04;9.00;;;2.67;;
15946;SDS011;8072;52.554;7.966;2023-04-25T06:24:29;12.90;;;3.47;;
15946;SDS011;8072;52.554;7.966;2023-04-25T06:26:55;15.03;;;3.50;;
15946;SDS011;8072;52.554;7.966;2023-04-25T06:29:21;12.17;;;3.13;;
15946;SDS011;8072;52.554;7.966;2023-04-25T06:31:47;13.30;;;2.70;;
15946;SDS011;8072;52.554;7.966;2023-04-25T06:34:13;18.17;;;4.70;;
15946;SDS011;8072;52.554;7.966;2023-04-25T06:36:38;12.37;;;3.87;;
15946;SDS011;8072;52.554;7.966;2023-04-25T06:39:06;12.90;;;2.97;;
15946;SDS011;8072;52.554;7.966;2023-04-25T06:41:33;15.83;;;2.63;;
15946;SDS011;8072;52.554;7.966;2023-04-25T06:43:58;13.33;;;3.00;;
15946;SDS011;8072;52.554;7.966;2023-04-25T06:46:24;12.00;;;3.07;;
15946;SDS011;8072;52.554;7.966;2023-04-25T06:48:50;11.73;;;2.70;;
15946;SDS011;8072;52.554;7.966;2023-04-25T06:51:16;16.17;;;2.73;;
15946;SDS011;8072;52.554;7.966;2023-04-25T06:53:41;9.63;;;2.57;;
15946;SDS011;8072;52.554;7.966;2023-04-25T06:56:07;9.17;;;2.97;;
15946;SDS011;8072;52.554;7.966;2023-04-25T06:58:33;10.90;;;3.30;;
15946;SDS011;8072;52.554;7.966;2023-04-25T07:00:59;11.13;;;3.33;;
15946;SDS011;8072;52.554;7.966;2023-04-25T07:03:25;6.70;;;2.77;;
15946;SDS011;8072;52.554;7.966;2023-04-25T07:05:50;11.73;;;2.40;;
15946;SDS011;8072;52.554;7.966;2023-04-25T07:08:16;9.83;;;2.47;;
15946;SDS011;8072;52.554;7.966;2023-04-25T07:10:42;9.00;;;2.37;;
15946;SDS011;8072;52.554;7.966;2023-04-25T07:13:08;10.37;;;2.67;;
15946;SDS011;8072;52.554;7.966;2023-04-25T07:15:34;8.87;;;2.20;;
15946;SDS011;8072;52.554;7.966;2023-04-25T07:18:00;10.40;;;2.50;;
15946;SDS011;8072;52.554;7.966;2023-04-25T07:20:26;11.83;;;2.57;;
15946;SDS011;8072;52.554;7.966;2023-04-25T07:22:52;10.97;;;2.23;;
15946;SDS011;8072;52.554;7.966;2023-04-25T07:25:19;10.37;;;2.77;;
15946;SDS011;8072;52.554;7.966;2023-04-25T07:27:45;8.37;;;2.00;;
15946;SDS011;8072;52.554;7.966;2023-04-25T07:30:11;11.60;;;2.20;;
15946;SDS011;8072;52.554;7.966;2023-04-25T07:32:37;8.30;;;2.50;;
15946;SDS011;8072;52.554;7.966;2023-04-25T07:35:04;10.20;;;2.00;;
15946;SDS011;8072;52.554;7.966;2023-04-25T07:37:32;11.07;;;2.30;;
15946;SDS011;8072;52.554;7.966;2023-04-25T07:39:58;13.90;;;2.63;;
15946;SDS011;8072;52.554;7.966;2023-04-25T07:42:24;7.03;;;2.20;;
15946;SDS011;8072;52.554;7.966;2023-04-25T07:44:50;13.70;;;2.37;;
15946;SDS011;8072;52.554;7.966;2023-04-25T07:47:16;18.97;;;2.63;;
15946;SDS011;8072;52.554;7.966;2023-04-25T07:49:44;13.83;;;2.47;;
15946;SDS011;8072;52.554;7.966;2023-04-25T07:52:10;8.27;;;1.97;;
15946;SDS011;8072;52.554;7.966;2023-04-25T07:54:36;10.37;;;2.17;;
15946;SDS011;8072;52.554;7.966;2023-04-25T07:57:02;8.80;;;2.03;;
15946;SDS011;8072;52.554;7.966;2023-04-25T07:59:27;8.67;;;2.37;;
15946;SDS011;8072;52.554;7.966;2023-04-25T08:01:53;12.63;;;2.27;;
15946;SDS011;8072;52.554;7.966;2023-04-25T08:04:19;6.23;;;2.10;;
15946;SDS011;8072;52.554;7.966;2023-04-25T08:06:45;6.83;;;2.33;;
15946;SDS011;8072;52.554;7.966;2023-04-25T08:09:11;7.10;;;2.20;;
15946;SDS011;8072;52.554;7.966;2023-04-25T08:11:37;16.77;;;2.33;;
15946;SDS011;8072;52.554;7.966;2023-04-25T08:14:03;6.60;;;2.00;;
15946;SDS011;8072;52.554;7.966;2023-04-25T08:16:29;5.97;;;1.83;;
15946;SDS011;8072;52.554;7.966;2023-04-25T08:18:55;10.43;;;2.20;;
15946;SDS011;8072;52.554;7.966;2023-04-25T08:21:20;5.97;;;1.90;;
15946;SDS011;8072;52.554;7.966;2023-04-25T08:23:46;7.63;;;2.10;;
15946;SDS011;8072;52.554;7.966;2023-04-25T08:26:12;5.53;;;1.63;;
15946;SDS011;8072;52.554;7.966;2023-04-25T08:28:38;8.90;;;2.43;;
15946;SDS011;8072;52.554;7.966;2023-04-25T08:31:03;4.47;;;1.53;;
15946;SDS011;8072;52.554;7.966;2023-04-25T08:33:29;6.80;;;1.80;;
15946;SDS011;8072;52.554;7.966;2023-04-25T08:35:56;4.13;;;1.70;;
15946;SDS011;8072;52.554;7.966;2023-04-25T08:38:22;7.07;;;2.30;;
15946;SDS011;8072;52.554;7.966;2023-04-25T08:40:51;7.97;;;1.60;;
15946;SDS011;8072;52.554;7.966;2023-04-25T08:43:18;5.73;;;2.07;;
15946;SDS011;8072;52.554;7.966;2023-04-25T08:45:44;4.40;;;1.60;;
15946;SDS011;8072;52.554;7.966;2023-04-25T08:48:14;4.70;;;1.47;;
15946;SDS011;8072;52.554;7.966;2023-04-25T08:53:14;9.57;;;1.47;;
15946;SDS011;8072;52.554;7.966;2023-04-25T08:55:43;4.87;;;1.60;;
15946;SDS011;8072;52.554;7.966;2023-04-25T08:58:11;5.70;;;1.63;;
15946;SDS011;8072;52.554;7.966;2023-04-25T09:00:38;6.97;;;1.70;;
15946;SDS011;8072;52.554;7.966;2023-04-25T09:03:04;4.33;;;1.33;;
15946;SDS011;8072;52.554;7.966;2023-04-25T09:05:30;8.27;;;1.53;;
15946;SDS011;8072;52.554;7.966;2023-04-25T09:08:01;4.33;;;1.20;;
15946;SDS011;8072;52.554;7.966;2023-04-25T09:10:27;6.13;;;1.63;;
15946;SDS011;8072;52.554;7.966;2023-04-25T09:13:01;4.33;;;1.47;;
15946;SDS011;8072;52.554;7.966;2023-04-25T09:15:48;6.80;;;1.30;;
15946;SDS011;8072;52.554;7.966;2023-04-25T09:18:28;9.30;;;1.63;;
15946;SDS011;8072;52.554;7.966;2023-04-25T09:21:04;4.47;;;1.47;;
15946;SDS011;8072;52.554;7.966;2023-04-25T09:23:41;5.93;;;2.17;;
15946;SDS011;8072;52.554;7.966;2023-04-25T09:26:13;8.40;;;2.00;;
15946;SDS011;8072;52.554;7.966;2023-04-25T09:28:40;9.90;;;1.90;;
15946;SDS011;8072;52.554;7.966;2023-04-25T09:31:09;6.03;;;1.43;;
15946;SDS011;8072;52.554;7.966;2023-04-25T09:33:36;8.53;;;1.43;;
15946;SDS011;8072;52.554;7.966;2023-04-25T09:36:03;7.27;;;1.50;;
15946;SDS011;8072;52.554;7.966;2023-04-25T09:38:31;5.33;;;1.80;;
15946;SDS011;8072;52.554;7.966;2023-04-25T09:40:57;6.00;;;2.40;;
15946;SDS011;8072;52.554;7.966;2023-04-25T09:43:24;3.43;;;1.20;;
15946;SDS011;8072;52.554;7.966;2023-04-25T09:45:51;4.63;;;1.27;;
15946;SDS011;8072;52.554;7.966;2023-04-25T09:48:22;2.00;;;1.00;;
15946;SDS011;8072;52.554;7.966;2023-04-25T09:53:34;1.50;;;1.10;;
15946;SDS011;8072;52.554;7.966;2023-04-25T09:56:05;2.40;;;1.13;;
15946;SDS011;8072;52.554;7.966;2023-04-25T09:58:32;1.13;;;0.80;;
15946;SDS011;8072;52.554;7.966;2023-04-25T10:01:00;5.43;;;1.07;;
15946;SDS011;8072;52.554;7.966;2023-04-25T10:03:29;1.83;;;1.30;;
15946;SDS011;8072;52.554;7.966;2023-04-25T10:05:57;2.37;;;1.00;;
15946;SDS011;8072;52.554;7.966;2023-04-25T10:08:27;2.40;;;1.07;;
15946;SDS011;8072;52.554;7.966;2023-04-25T10:10:59;3.77;;;1.30;;
15946;SDS011;8072;52.554;7.966;2023-04-25T10:13:28;3.37;;;1.23;;
15946;SDS011;8072;52.554;7.966;2023-04-25T10:16:02;6.43;;;1.50;;
15946;SDS011;8072;52.554;7.966;2023-04-25T10:18:30;3.60;;;1.50;;
15946;SDS011;8072;52.554;7.966;2023-04-25T10:20:58;4.80;;;1.07;;
15946;SDS011;8072;52.554;7.966;2023-04-25T10:23:25;4.40;;;1.50;;
15946;SDS011;8072;52.554;7.966;2023-04-25T10:25:52;4.60;;;1.30;;
15946;SDS011;8072;52.554;7.966;2023-04-25T10:28:19;4.67;;;1.57;;
15946;SDS011;8072;52.554;7.966;2023-04-25T10:33:34;7.47;;;1.60;;
15946;SDS011;8072;52.554;7.966;2023-04-25T10:36:14;4.70;;;1.70;;
15946;SDS011;8072;52.554;7.966;2023-04-25T10:38:43;6.83;;;1.50;;
15946;SDS011;8072;52.554;7.966;2023-04-25T10:41:10;4.77;;;1.53;;
15946;SDS011;8072;52.554;7.966;2023-04-25T10:48:49;3.87;;;1.33;;
15946;SDS011;8072;52.554;7.966;2023-04-25T10:51:29;3.43;;;1.37;;
15946;SDS011;8072;52.554;7.966;2023-04-25T10:56:33;5.70;;;1.40;;
15946;SDS011;8072;52.554;7.966;2023-04-25T11:01:42;5.57;;;1.63;;
15946;SDS011;8072;52.554;7.966;2023-04-25T11:09:32;6.67;;;1.40;;
15946;SDS011;8072;52.554;7.966;2023-04-25T11:11:59;8.70;;;1.57;;
15946;SDS011;8072;52.554;7.966;2023-04-25T11:14:25;5.73;;;1.40;;
15946;SDS011;8072;52.554;7.966;2023-04-25T11:16:55;2.90;;;1.50;;
15946;SDS011;8072;52.554;7.966;2023-04-25T11:19:23;4.47;;;1.60;;
15946;SDS011;8072;52.554;7.966;2023-04-25T11:21:50;4.07;;;1.50;;
15946;SDS011;8072;52.554;7.966;2023-04-25T11:24:19;2.67;;;1.20;;
15946;SDS011;8072;52.554;7.966;2023-04-25T11:26:50;4.93;;;1.20;;
15946;SDS011;8072;52.554;7.966;2023-04-25T11:29:16;2.87;;;1.30;;
15946;SDS011;8072;52.554;7.966;2023-04-25T11:31:45;3.40;;;2.40;;
15946;SDS011;8072;52.554;7.966;2023-04-25T11:34:11;3.73;;;1.30;;
15946;SDS011;8072;52.554;7.966;2023-04-25T11:36:37;3.43;;;1.40;;
15946;SDS011;8072;52.554;7.966;2023-04-25T11:39:04;4.07;;;1.20;;
15946;SDS011;8072;52.554;7.966;2023-04-25T11:41:31;2.17;;;1.03;;
15946;SDS011;8072;52.554;7.966;2023-04-25T11:43:57;3.47;;;1.17;;
15946;SDS011;8072;52.554;7.966;2023-04-25T11:46:22;3.30;;;1.20;;
15946;SDS011;8072;52.554;7.966;2023-04-25T11:48:48;1.97;;;1.00;;
15946;SDS011;8072;52.554;7.966;2023-04-25T11:51:15;4.50;;;1.33;;
15946;SDS011;8072;52.554;7.966;2023-04-25T11:53:44;3.33;;;1.57;;
15946;SDS011;8072;52.554;7.966;2023-04-25T11:56:10;3.63;;;1.00;;
15946;SDS011;8072;52.554;7.966;2023-04-25T12:01:49;3.97;;;1.10;;
15946;SDS011;8072;52.554;7.966;2023-04-25T12:04:19;4.20;;;0.90;;
15946;SDS011;8072;52.554;7.966;2023-04-25T12:06:47;3.90;;;1.10;;
15946;SDS011;8072;52.554;7.966;2023-04-25T12:09:18;2.23;;;0.87;;
15946;SDS011;8072;52.554;7.966;2023-04-25T12:11:57;3.47;;;1.20;;
15946;SDS011;8072;52.554;7.966;2023-04-25T12:14:25;2.60;;;1.10;;
15946;SDS011;8072;52.554;7.966;2023-04-25T12:16:56;1.97;;;1.00;;
15946;SDS011;8072;52.554;7.966;2023-04-25T12:19:23;1.87;;;1.00;;
15946;SDS011;8072;52.554;7.966;2023-04-25T12:21:51;2.47;;;1.10;;
15946;SDS011;8072;52.554;7.966;2023-04-25T12:24:22;4.47;;;1.53;;
15946;SDS011;8072;52.554;7.966;2023-04-25T12:27:00;4.00;;;1.13;;
15946;SDS011;8072;52.554;7.966;2023-04-25T12:29:28;1.50;;;1.00;;
15946;SDS011;8072;52.554;7.966;2023-04-25T12:31:55;1.53;;;1.07;;
15946;SDS011;8072;52.554;7.966;2023-04-25T12:34:22;1.53;;;0.80;;
15946;SDS011;8072;52.554;7.966;2023-04-25T12:36:49;1.83;;;1.43;;
15946;SDS011;8072;52.554;7.966;2023-04-25T12:39:16;2.60;;;1.07;;
15946;SDS011;8072;52.554;7.966;2023-04-25T12:41:42;2.50;;;1.13;;
15946;SDS011;8072;52.554;7.966;2023-04-25T12:44:08;1.90;;;1.03;;
15946;SDS011;8072;52.554;7.966;2023-04-25T12:46:34;3.30;;;1.23;;
15946;SDS011;8072;52.554;7.966;2023-04-25T12:49:00;5.10;;;1.30;;
15946;SDS011;8072;52.554;7.966;2023-04-25T12:51:28;5.43;;;1.20;;
15946;SDS011;8072;52.554;7.966;2023-04-25T12:53:54;4.97;;;1.20;;
15946;SDS011;8072;52.554;7.966;2023-04-25T12:56:20;3.83;;;1.20;;
15946;SDS011;8072;52.554;7.966;2023-04-25T12:58:46;3.43;;;1.13;;
15946;SDS011;8072;52.554;7.966;2023-04-25T13:01:13;5.67;;;1.57;;
15946;SDS011;8072;52.554;7.966;2023-04-25T13:03:39;3.57;;;1.40;;
15946;SDS011;8072;52.554;7.966;2023-04-25T13:06:06;3.30;;;1.27;;
15946;SDS011;8072;52.554;7.966;2023-04-25T13:08:32;4.23;;;1.60;;
15946;SDS011;8072;52.554;7.966;2023-04-25T13:10:58;3.83;;;1.47;;
15946;SDS011;8072;52.554;7.966;2023-04-25T13:13:23;4.00;;;1.30;;
15946;SDS011;8072;52.554;7.966;2023-04-25T13:15:49;6.47;;;1.30;;
15946;SDS011;8072;52.554;7.966;2023-04-25T13:18:15;5.90;;;1.50;;
15946;SDS011;8072;52.554;7.966;2023-04-25T13:20:41;5.33;;;1.50;;
15946;SDS011;8072;52.554;7.966;2023-04-25T13:23:06;2.30;;;1.30;;
15946;SDS011;8072;52.554;7.966;2023-04-25T13:25:32;7.93;;;1.40;;
15946;SDS011;8072;52.554;7.966;2023-04-25T13:27:58;5.40;;;1.43;;
15946;SDS011;8072;52.554;7.966;2023-04-25T13:30:23;4.60;;;1.40;;
15946;SDS011;8072;52.554;7.966;2023-04-25T13:32:49;2.90;;;1.23;;
15946;SDS011;8072;52.554;7.966;2023-04-25T13:35:16;5.47;;;1.20;;
15946;SDS011;8072;52.554;7.966;2023-04-25T13:37:42;5.50;;;1.30;;
15946;SDS011;8072;52.554;7.966;2023-04-25T13:40:08;6.00;;;1.40;;
15946;SDS011;8072;52.554;7.966;2023-04-25T13:42:39;4.20;;;1.30;;
15946;SDS011;8072;52.554;7.966;2023-04-25T13:45:05;3.07;;;1.20;;
15946;SDS011;8072;52.554;7.966;2023-04-25T13:47:32;5.97;;;1.43;;
15946;SDS011;8072;52.554;7.966;2023-04-25T13:49:58;6.40;;;1.30;;
15946;SDS011;8072;52.554;7.966;2023-04-25T13:52:24;4.23;;;1.50;;
15946;SDS011;8072;52.554;7.966;2023-04-25T13:54:50;4.23;;;1.33;;
15946;SDS011;8072;52.554;7.966;2023-04-25T13:57:17;2.10;;;1.00;;
15946;SDS011;8072;52.554;7.966;2023-04-25T13:59:43;4.23;;;1.33;;
15946;SDS011;8072;52.554;7.966;2023-04-25T14:02:09;2.27;;;1.50;;
15946;SDS011;8072;52.554;7.966;2023-04-25T14:04:35;2.47;;;1.17;;
15946;SDS011;8072;52.554;7.966;2023-04-25T14:07:01;2.30;;;1.20;;
15946;SDS011;8072;52.554;7.966;2023-04-25T14:09:28;2.47;;;1.10;;
15946;SDS011;8072;52.554;7.966;2023-04-25T14:11:54;2.77;;;1.10;;
15946;SDS011;8072;52.554;7.966;2023-04-25T14:14:21;3.93;;;1.50;;
15946;SDS011;8072;52.554;7.966;2023-04-25T14:16:50;2.70;;;1.30;;
15946;SDS011;8072;52.554;7.966;2023-04-25T14:19:18;7.67;;;1.40;;
15946;SDS011;8072;52.554;7.966;2023-04-25T14:21:45;6.30;;;1.50;;
15946;SDS011;8072;52.554;7.966;2023-04-25T14:24:11;3.77;;;1.30;;
15946;SDS011;8072;52.554;7.966;2023-04-25T14:26:38;4.83;;;1.43;;
15946;SDS011;8072;52.554;7.966;2023-04-25T14:29:04;5.77;;;1.43;;
15946;SDS011;8072;52.554;7.966;2023-04-25T14:31:33;3.90;;;1.53;;
15946;SDS011;8072;52.554;7.966;2023-04-25T14:34:00;5.73;;;1.40;;
15946;SDS011;8072;52.554;7.966;2023-04-25T14:36:30;4.27;;;1.53;;
15946;SDS011;8072;52.554;7.966;2023-04-25T14:38:56;8.37;;;1.60;;
15946;SDS011;8072;52.554;7.966;2023-04-25T14:41:24;4.93;;;1.87;;
15946;SDS011;8072;52.554;7.966;2023-04-25T14:43:50;6.40;;;1.50;;
15946;SDS011;8072;52.554;7.966;2023-04-25T14:46:17;6.63;;;2.03;;
15946;SDS011;8072;52.554;7.966;2023-04-25T14:48:44;5.43;;;1.50;;
15946;SDS011;8072;52.554;7.966;2023-04-25T14:51:10;2.93;;;1.93;;
15946;SDS011;8072;52.554;7.966;2023-04-25T14:53:36;3.20;;;1.60;;
15946;SDS011;8072;52.554;7.966;2023-04-25T14:56:02;6.50;;;1.97;;
15946;SDS011;8072;52.554;7.966;2023-04-25T14:58:28;6.20;;;2.20;;
15946;SDS011;8072;52.554;7.966;2023-04-25T15:00:54;4.23;;;1.50;;
15946;SDS011;8072;52.554;7.966;2023-04-25T15:03:20;4.00;;;1.40;;
15946;SDS011;8072;52.554;7.966;2023-04-25T15:05:46;5.63;;;2.10;;
15946;SDS011;8072;52.554;7.966;2023-04-25T15:08:11;4.50;;;1.60;;
15946;SDS011;8072;52.554;7.966;2023-04-25T15:10:37;7.07;;;2.80;;
15946;SDS011;8072;52.554;7.966;2023-04-25T15:13:03;6.80;;;2.00;;
15946;SDS011;8072;52.554;7.966;2023-04-25T15:15:29;5.53;;;1.50;;
15946;SDS011;8072;52.554;7.966;2023-04-25T15:17:55;7.13;;;1.90;;
15946;SDS011;8072;52.554;7.966;2023-04-25T15:20:22;7.90;;;2.00;;